• Join FlightAware (Why Join?)
  • Login
  • US Flag 
05:15AM EST


 

Airport Tracker/Info


-or-


 

Live Flight TrackerFlight Track Log ✈ UAL1177 ✈ 18-Apr-2013 ✈ KSFO - KSTL

Flight Track Log - Related Links

Times and Time Zones

All times are in EDT time to prevent confusion due to time zone crossing. See the UAL1177 flight status page for this flight to view local times or setup timezone preferences in your user account.

Time Position Orientation Groundspeed Altitude Reporting Facility
EDT Latitude Longitude Course Direction KTS MPH feet Rate Location/Type
03:38PM 37.6500 -122.3500 70° East 171 197 1,400  Level Northern Cal TRACON
03:39PM 37.6833 -122.3000 50° Northeast 208 239 4,300 2,520 Climbing Northern Cal TRACON
03:40PM 37.6967 -122.2769 54° Northeast 214 246 4,900 3,060 Climbing Oakland Center
03:41PM 37.7394 -122.1992 55° Northeast 264 304 8,600 3,000 Climbing Oakland Center
03:42PM 37.7653 -122.1050 71° East 283 326 11,100 2,580 Climbing Oakland Center
03:43PM 37.7964 -121.9950 70° East 325 374 14,000 2,880 Climbing Oakland Center
03:44PM 37.7297 -122.0129 70° East  Level FlightAware Approximate
03:44PM 37.8289 -121.8783 71° East 349 402 17,100  Level Oakland Center
03:45PM 37.8633 -121.7572 70° East 365 420 19,400 2,580 Climbing Oakland Center
03:46PM 37.9061 -121.6067 70° East 380 437 22,500 2,400 Climbing Oakland Center
03:47PM 37.9436 -121.4747 70° East 395 455 24,400 1,740 Climbing Oakland Center
03:48PM 37.9758 -121.3547 71° East 405 466 26,100 1,980 Climbing Oakland Center
03:49PM 38.0239 -121.1869 70° East 422 486 28,500 1,980 Climbing Oakland Center
03:50PM 38.0631 -121.0464 70° East 425 489 30,200 1,620 Climbing Oakland Center
03:51PM 38.0894 -120.8969 77° East 437 503 31,800 1,800 Climbing Oakland Center
03:52PM 38.1097 -120.7483 80° East 433 498 33,900 1,680 Climbing Oakland Center
03:53PM 38.1297 -120.6022 80° East 422 486 35,300 1,020 Climbing Oakland Center
03:54PM 38.1483 -120.4539 81° East 427 491 36,000 720 Climbing Oakland Center
03:55PM 38.1689 -120.3022 80° East 436 502 36,800 480 Climbing Oakland Center
03:56PM 38.1892 -120.1461 81° East 447 514 37,000 60 Climbing Oakland Center
03:57PM 38.2153 -119.9586 80° East 450 518 37,000  Level Oakland Center
03:58PM 38.2344 -119.8039 81° East 447 514 37,000  Level Oakland Center
03:59PM 38.2539 -119.6467 81° East 451 519 37,000  Level Oakland Center
04:00PM 38.2733 -119.4897 81° East 452 520 37,000  Level Oakland Center
04:01PM 38.2900 -119.3361 82° East 450 518 37,000  Level Oakland Center
04:02PM 38.3097 -119.1772 81° East 454 522 37,000 120 Level Oakland Center
04:03PM 38.3286 -119.0172 81° East 458 527 37,300 480 Climbing Oakland Center
04:04PM 38.3528 -118.8211 81° East 468 539 38,000 780 Climbing Oakland Center
04:05PM 38.3706 -118.6550 82° East 474 545 38,900 480 Climbing Oakland Center
04:06PM 38.3914 -118.4911 81° East 471 542 39,000  Climbing Oakland Center
04:07PM 38.4094 -118.3261 82° East 473 544 39,000  Level Oakland Center
04:08PM 38.4281 -118.1583 82° East 478 550 39,000  Level Oakland Center
04:09PM 38.4467 -117.9742 83° East 478 550 39,000  Level Oakland Center
04:10PM 38.4653 -117.8067 82° East 476 548 39,000  Level Oakland Center
04:11PM 38.4842 -117.6400 82° East 472 543 39,000  Level Oakland Center
04:12PM 38.4983 -117.5031 82° East 477 549 39,000  Level Salt Lake Center
04:13PM 38.5144 -117.3350 83° East 475 547 39,000  Level Salt Lake Center
04:14PM 38.5178 -117.1644 89° East 479 551 39,000  Level Salt Lake Center
04:15PM 38.5139 -116.9931 92° East 479 551 39,000  Level Salt Lake Center
04:17PM 38.5094 -116.7894 92° East 478 550 39,000  Level Oakland Center
04:18PM 38.5061 -116.6203 91° East 475 547 39,000  Level Oakland Center
04:18PM 38.4997 -116.4519 93° East 474 545 39,000  Level Salt Lake Center
04:19PM 38.4953 -116.2819 92° East 475 547 39,000  Level Salt Lake Center
04:20PM 38.4892 -116.1147 93° East 474 545 39,000  Level Salt Lake Center
04:22PM 38.4839 -115.9469 92° East 473 544 39,000  Level Salt Lake Center
04:23PM 38.4800 -115.7794 92° East 472 543 39,000  Level Salt Lake Center
04:24PM 38.4736 -115.6094 93° East 478 550 39,000  Level Salt Lake Center
04:25PM 38.4692 -115.4389 92° East 480 552 39,000  Level Salt Lake Center
04:26PM 38.4644 -115.2628 92° East 487 560 39,000  Level Salt Lake Center
04:27PM 38.4575 -115.0942 93° East 480 552 39,000  Level Salt Lake Center
04:28PM 38.4506 -114.9219 93° East 485 558 39,000  Level Salt Lake Center
04:29PM 38.4425 -114.7156 93° East 487 560 39,000  Level Salt Lake Center
04:30PM 38.4353 -114.5433 93° East 487 560 39,000  Level Salt Lake Center
04:31PM 38.4269 -114.3717 93° East 487 560 39,000  Level Salt Lake Center
04:32PM 38.4214 -114.1981 92° East 489 563 39,000  Level Salt Lake Center
04:33PM 38.4133 -114.0236 93° East 492 566 39,000  Level Salt Lake Center
04:34PM 38.4044 -113.8506 94° East 490 564 39,000  Level Salt Lake Center
04:35PM 38.3958 -113.6767 94° East 491 565 39,000  Level Salt Lake Center
04:36PM 38.3878 -113.5047 93° East 488 562 39,000  Level Salt Lake Center
04:37PM 38.3781 -113.3306 94° East 490 564 39,000  Level Salt Lake Center
04:38PM 38.3667 -113.1233 94° East 489 563 39,000  Level Salt Lake Center
04:39PM 38.3714 -112.9525 88° East 485 558 39,000  Level Salt Lake Center
04:40PM 38.4025 -112.7917 76° East 469 540 39,000  Level Salt Lake Center
04:41PM 38.4322 -112.6294 77° East 470 541 39,000  Level Salt Lake Center
04:42PM 38.4603 -112.4664 78° East 469 540 39,000  Level Salt Lake Center
04:43PM 38.4903 -112.3072 76° East 464 534 39,000  Level Salt Lake Center
04:44PM 38.5194 -112.1464 77° East 465 535 39,000  Level Salt Lake Center
04:45PM 38.5478 -111.9853 77° East 465 535 39,000  Level Salt Lake Center
04:46PM 38.5756 -111.8244 77° East 464 534 39,000  Level Salt Lake Center
04:47PM 38.6044 -111.6633 77° East 465 535 39,000  Level Salt Lake Center
04:48PM 38.6375 -111.4703 78° East 463 533 39,000  Level Salt Lake Center
04:49PM 38.6642 -111.3089 78° East 463 533 39,000  Level Salt Lake Center
04:50PM 38.6922 -111.1492 77° East 461 531 39,000  Level Salt Lake Center
04:51PM 38.7186 -110.9872 78° East 465 535 39,000  Level Salt Lake Center
04:52PM 38.7439 -110.8311 78° East 466 536 39,000  Level Salt Lake Center
04:53PM 38.7742 -110.6506 78° East 466 536 39,000  Level Salt Lake Center
04:54PM 38.8000 -110.4931 78° East 470 541 39,000  Level Salt Lake Center
04:55PM 38.8294 -110.3086 78° East 473 544 39,000  Level Salt Lake Center
04:56PM 38.8411 -110.2269 80° East 474 545 39,000  Level Denver Center
04:57PM 38.8700 -110.0422 79° East 473 544 39,000  Level Denver Center
04:57PM 38.8836 -109.9650 77° East 474 545 39,000  Level Salt Lake Center
04:58PM 38.9089 -109.8053 78° East 477 549 39,000  Level Salt Lake Center
04:59PM 38.9233 -109.6956 80° East 478 550 39,000  Level Denver Center
05:00PM 38.9469 -109.5311 79° East 490 564 39,000  Level Denver Center
05:01PM 38.9767 -109.3450 78° East 481 554 39,000  Level Denver Center
05:02PM 39.0006 -109.1850 79° East 479 551 39,000  Level Denver Center
05:03PM 39.0244 -109.0228 79° East 482 555 39,000  Level Denver Center
05:04PM 39.0517 -108.8344 79° East 482 555 39,000  Level Denver Center
05:05PM 39.0825 -108.6783 76° East 474 545 39,000  Level Denver Center
05:06PM 39.1203 -108.4983 75° East 470 541 39,000  Level Denver Center
05:07PM 39.1519 -108.3431 75° East 470 541 39,000  Level Denver Center
05:08PM 39.1906 -108.1606 75° East 476 548 39,000  Level Denver Center
05:09PM 39.2219 -108.0019 76° East 478 550 39,000  Level Denver Center
05:10PM 39.2603 -107.8158 75° East 482 555 39,000  Level Denver Center
05:11PM 39.2917 -107.6553 76° East 484 557 39,000  Level Denver Center
05:12PM 39.3281 -107.4678 76° East 483 556 39,000  Level Denver Center
05:13PM 39.3603 -107.3081 75° East 482 555 39,000  Level Denver Center
05:14PM 39.3969 -107.1206 76° East 482 555 39,000  Level Denver Center
05:15PM 39.4250 -106.9658 77° East 467 537 39,000  Level Denver Center
05:16PM 39.4514 -106.8056 78° East 473 544 39,000  Level Denver Center
05:17PM 39.4728 -106.6158 82° East 477 549 39,000  Level Denver Center
05:19PM 39.4925 -106.4436 82° East 478 550 39,000  Level Denver Center
05:20PM 39.5125 -106.2733 81° East 478 550 39,000  Level Denver Center
05:21PM 39.5322 -106.0819 82° East 479 551 39,000  Level Denver Center
05:22PM 39.5517 -105.9061 82° East 485 558 39,000  Level Denver Center
05:23PM 39.5725 -105.7319 81° East 488 562 39,000  Level Denver Center
05:24PM 39.5914 -105.5603 82° East 475 547 39,000  Level Denver Center
05:25PM 39.6100 -105.3881 82° East 474 545 39,000  Level Denver Center
05:26PM 39.6281 -105.2183 82° East 466 536 39,000  Level Denver Center
05:27PM 39.6456 -105.0472 82° East 471 542 39,000  Level Denver Center
05:28PM 39.6631 -104.8744 82° East 477 549 39,000  Level Denver Center
05:29PM 39.6806 -104.7008 82° East 483 556 39,000  Level Denver Center
05:30PM 39.6817 -104.5203 89° East 496 571 39,000  Level Denver Center
05:31PM 39.6650 -104.3444 97° East 482 555 39,000  Level Denver Center
05:32PM 39.6475 -104.1697 97° East 487 560 39,000  Level Denver Center
05:33PM 39.6317 -103.9992 97° East 467 537 39,000  Level Denver Center
05:34PM 39.6128 -103.8211 98° East 484 557 39,000  Level Denver Center
05:35PM 39.5944 -103.6200 97° East 474 545 39,000  Level Denver Center
05:36PM 39.5781 -103.4444 97° East 485 558 39,000  Level Denver Center
05:37PM 39.5600 -103.2694 98° East 485 558 39,000  Level Denver Center
05:38PM 39.5422 -103.0950 97° East 485 558 39,000  Level Denver Center
05:39PM 39.5233 -102.9208 98° East 483 556 39,000  Level Denver Center
05:40PM 39.5056 -102.7464 97° East 484 557 39,000  Level Denver Center
05:41PM 39.4869 -102.5725 98° East 483 556 39,000  Level Denver Center
05:42PM 39.4681 -102.3989 98° East 482 555 39,000  Level Denver Center
05:43PM 39.4456 -102.2025 98° East 489 563 39,000  Level Denver Center
05:44PM 39.4283 -102.0381 98° East 484 557 39,000  Level Denver Center
05:45PM 39.4053 -101.8403 99° East 498 573 39,000  Level Denver Center
05:46PM 39.3853 -101.6742 99° East 492 566 39,000  Level Denver Center
05:47PM 39.3669 -101.4772 97° East 496 571 39,000  Level Denver Center
05:48PM 39.3506 -101.3086 97° East 496 571 39,000  Level Denver Center
05:49PM 39.3336 -101.1417 97° East 493 567 39,000  Level Denver Center
05:50PM 39.3142 -100.9450 97° East 496 571 39,000  Level Denver Center
05:51PM 39.2967 -100.7792 98° East 490 564 39,000  Level Denver Center
05:53PM 39.2764 -100.5839 98° East 492 566 39,000  Level Denver Center
05:54PM 39.2581 -100.4186 98° East 489 563 39,000  Level Denver Center
05:55PM 39.2381 -100.2253 98° East 488 562 39,000  Level Denver Center
05:56PM 39.2200 -100.0597 98° East 488 562 39,000  Level Denver Center
05:57PM 39.1983 -99.8664 98° East 489 563 39,000  Level Denver Center
05:58PM 39.1803 -99.6997 98° East 489 563 39,000  Level Denver Center
05:59PM 39.1569 -99.5061 99° East 489 563 39,000  Level Denver Center
06:00PM 39.1417 -99.3386 97° East 491 565 39,000  Level Denver Center
06:01PM 39.1383 -99.1622 91° East 509 586 39,000  Level Denver Center
06:02PM 39.1325 -98.9542 92° East 505 581 39,000  Level Denver Center
06:03PM 39.1264 -98.7722 92° East 509 586 39,000  Level Denver Center
06:04PM 39.1206 -98.5914 92° East 508 585 39,000  Level Denver Center
06:05PM 39.1169 -98.4772 92° East 509 586 39,000  Level Kansas City Center
06:06PM 39.1106 -98.2947 93° East 509 586 39,000  Level Kansas City Center
06:07PM 39.1042 -98.1125 93° East 509 586 39,000  Level Kansas City Center
06:08PM 39.0964 -97.9314 93° East 507 583 39,000  Level Kansas City Center
06:09PM 39.0900 -97.7303 92° East 517 595 39,000  Level Kansas City Center
06:10PM 39.0814 -97.5239 93° East 518 596 39,000  Level Kansas City Center
06:11PM 39.0733 -97.3456 93° East 520 598 39,000  Level Kansas City Center
06:12PM 39.0633 -97.1367 93° East 523 602 39,000  Level Kansas City Center
06:13PM 39.0553 -96.9586 93° East 523 602 39,000  Level Kansas City Center
06:14PM 39.0453 -96.7511 93° East 522 601 39,000  Level Kansas City Center
06:15PM 39.0372 -96.5736 93° East 521 600 39,000  Level Kansas City Center
06:16PM 39.0250 -96.3664 94° East 521 600 39,000  Level Kansas City Center
06:17PM 39.0158 -96.1892 94° East 520 598 39,000  Level Kansas City Center
06:18PM 39.0047 -95.9844 94° East 517 595 39,000  Level Kansas City Center
06:19PM 38.9958 -95.8092 94° East 514 592 39,000  Level Kansas City Center
06:20PM 38.9839 -95.6042 94° East 516 594 39,000  Level Kansas City Center
06:21PM 38.9739 -95.4308 94° East 513 590 39,000  Level Kansas City Center
06:22PM 38.9617 -95.2314 94° East 510 587 39,000  Level Kansas City Center
06:23PM 38.9508 -95.0600 95° East 510 587 39,000  Level Kansas City Center
06:24PM 38.9372 -94.8600 95° East 506 582 39,000  Level Kansas City Center
06:25PM 38.9261 -94.6897 95° East 503 579 39,000  Level Kansas City Center
06:26PM 38.9131 -94.4903 95° East 502 578 39,000  Level Kansas City Center
06:27PM 38.9006 -94.3231 95° East 495 570 39,000 -540 Level Kansas City Center
06:28PM 38.8864 -94.1228 95° East 505 581 37,900 -960 Descending Kansas City Center
06:29PM 38.8742 -93.9489 95° East 511 588 37,000 -900 Descending Kansas City Center
06:30PM 38.8611 -93.7753 95° East 510 587 36,200 -960 Descending Kansas City Center
06:31PM 38.8469 -93.5619 95° East 500 575 35,100 -1,020 Descending Kansas City Center
06:32PM 38.8319 -93.3844 96° East 498 573 34,100 -960 Descending Kansas City Center
06:33PM 38.8186 -93.2019 95° East 506 582 33,200 -960 Descending Kansas City Center
06:34PM 38.8042 -93.0219 96° East 506 582 32,200 -960 Descending Kansas City Center
06:36PM 38.7894 -92.8450 96° East 501 577 31,200 -1,020 Descending Kansas City Center
06:37PM 38.7747 -92.6731 96° East 491 565 30,200 -1,020 Descending Kansas City Center
06:38PM 38.7606 -92.5050 96° East 479 551 29,100 -1,020 Descending Kansas City Center
06:39PM 38.7461 -92.3389 96° East 471 542 28,100 -1,020 Descending Kansas City Center
06:40PM 38.7317 -92.1778 97° East 458 527 27,100 -1,080 Descending Kansas City Center
06:41PM 38.7147 -91.9908 97° East 442 509 25,900 -1,560 Descending Kansas City Center
06:42PM 38.7008 -91.8381 97° East 434 499 23,900 -2,040 Descending Kansas City Center
06:43PM 38.6900 -91.6894 95° East 422 486 21,900 -2,100 Descending Kansas City Center
06:43PM 38.6933 -91.5533 88° East 420 483 20,700 -2,160 Descending FAA TRACON SMA TRACON (SMA)
06:44PM 38.6944 -91.4964 89° East 419 482 20,000 -1,980 Descending FAA TRACON SMA TRACON (SMA)
06:44PM 38.6939 -91.4503 91° East 419 482 19,400 -2,040 Descending FAA TRACON SMA TRACON (SMA)
06:44PM 38.6931 -91.4047 91° East 417 480 18,700 -2,640 Descending FAA TRACON SMA TRACON (SMA)
06:45PM 38.6925 -91.3472 91° East 419 482 17,600 -2,700 Descending FAA TRACON SMA TRACON (SMA)
06:45PM 38.6922 -91.3017 90° East 418 481 16,900 -2,040 Descending FAA TRACON SMA TRACON (SMA)
06:45PM 38.6925 -91.2556 90° East 420 483 16,300 -2,100 Descending FAA TRACON SMA TRACON (SMA)
06:46PM 38.6917 -91.1981 91° East 420 483 15,500 -2,100 Descending FAA TRACON SMA TRACON (SMA)
06:46PM 38.6917 -91.1522 90° East 421 484 14,900 -960 Descending FAA TRACON SMA TRACON (SMA)
06:46PM 38.6925 -91.1072 89° East 415 478 14,900 120 Level FAA TRACON SMA TRACON (SMA)
06:47PM 38.6914 -91.0619 92° East 413 475 15,000 120 Climbing FAA TRACON SMA TRACON (SMA)
06:47PM 38.6906 -91.0056 91° East 411 473 15,000  Level FAA TRACON SMA TRACON (SMA)
06:47PM 38.6906 -90.9608 90° East 411 473 15,000 -960 Level FAA TRACON SMA TRACON (SMA)
06:48PM 38.6906 -90.9158 90° East 410 472 14,400 -1,920 Descending FAA TRACON SMA TRACON (SMA)
06:48PM 38.6928 -90.8594 87° East 411 473 13,700 -1,920 Descending FAA TRACON SMA TRACON (SMA)
06:48PM 38.6942 -90.8150 88° East 408 470 13,100 -2,040 Descending FAA TRACON SMA TRACON (SMA)
06:49PM 38.6969 -90.7600 86° East 403 464 12,400 -1,740 Descending FAA TRACON SMA TRACON (SMA)
06:49PM 38.6986 -90.7167 87° East 399 459 12,000 -1,080 Descending FAA TRACON SMA TRACON (SMA)
06:49PM 38.7008 -90.6744 86° East 390 449 11,700 -1,080 Descending FAA TRACON SMA TRACON (SMA)
06:50PM 38.7028 -90.6225 87° East 381 438 11,300 -1,080 Descending FAA TRACON SMA TRACON (SMA)
06:50PM 38.7042 -90.5814 88° East 378 435 11,000 -900 Descending FAA TRACON SMA TRACON (SMA)
06:50PM 38.7061 -90.5411 86° East 371 427 10,700 -1,080 Descending FAA TRACON SMA TRACON (SMA)
06:51PM 38.7078 -90.4922 87° East 359 413 10,300 -1,080 Descending FAA TRACON SMA TRACON (SMA)
06:51PM 38.7086 -90.4550 88° East 345 397 10,000 -780 Descending FAA TRACON SMA TRACON (SMA)
06:51PM 38.7042 -90.4206 99° East 327 376 9,800 -900 Descending FAA TRACON SMA TRACON (SMA)
06:52PM 38.6886 -90.3825 118° Southeast 314 361 9,400 -1,080 Descending FAA TRACON SMA TRACON (SMA)
06:52PM 38.6742 -90.3556 124° Southeast 302 348 9,100 -1,200 Descending FAA TRACON SMA TRACON (SMA)
06:52PM 38.6569 -90.3228 124° Southeast 288 331 8,600 -1,620 Descending FAA TRACON SMA TRACON (SMA)
06:53PM 38.6433 -90.2981 125° Southeast 280 322 8,000 -1,740 Descending FAA TRACON SMA TRACON (SMA)
06:53PM 38.6292 -90.2739 127° Southeast 276 318 7,500 -1,740 Descending FAA TRACON SMA TRACON (SMA)
06:53PM 38.6153 -90.2494 126° Southeast 274 315 6,900 -1,920 Descending FAA TRACON SMA TRACON (SMA)
06:54PM 38.5975 -90.2194 127° Southeast 277 319 6,200 -1,920 Descending FAA TRACON SMA TRACON (SMA)
06:54PM 38.5831 -90.1961 128° Southeast 273 314 5,600 -1,860 Descending FAA TRACON SMA TRACON (SMA)
06:54PM 38.5714 -90.1697 119° Southeast 276 318 5,000 -1,800 Descending FAA TRACON SMA TRACON (SMA)
06:55PM 38.5725 -90.1308 88° East 292 336 4,400 -1,020 Descending FAA TRACON SMA TRACON (SMA)
06:55PM 38.6053 -90.0875 46° Northeast 291 335 4,000 -540 Descending FAA TRACON SMA TRACON (SMA)
06:56PM 38.6322 -90.0875 360° North 273 314 3,900 -300 Descending FAA TRACON SMA TRACON (SMA)
06:56PM 38.6469 -90.1039 319° Northwest 250 288 3,800 -780 Descending FAA TRACON SMA TRACON (SMA)
06:56PM 38.6578 -90.1308 297° West 221 254 3,400 -1,080 Descending FAA TRACON SMA TRACON (SMA)
06:57PM 38.6678 -90.1500 304° West 213 245 3,100 -900 Descending FAA TRACON SMA TRACON (SMA)